Time;durP1;ratioP1;P1;durP2;ratioP2;P2;SDS_P1;SDS_P2;PMS_P1;PMS_P2;Temp;Humidity;BMP_temperature;BMP_pressure;BME280_temperature;BME280_humidity;BME280_pressure;Samples;Min_cycle;Max_cycle;Signal;HPM_P1;HPM_P2
2024/03/23 00:01:50;;;;;;;1.05;0.98;;;17.30;73.90;;;;;;4987017;28;20042;-76
2024/03/23 00:04:17;;;;;;;1.30;0.70;;;17.30;73.90;;;;;;4987818;28;20061;-76
2024/03/23 00:06:43;;;;;;;1.02;0.85;;;17.30;73.80;;;;;;5004391;28;20049;-75
2024/03/23 00:09:10;;;;;;;0.80;0.57;;;17.30;73.70;;;;;;4990498;28;20050;-76
2024/03/23 00:11:37;;;;;;;0.88;0.70;;;17.30;73.80;;;;;;4989816;28;20381;-75
2024/03/23 00:14:07;;;;;;;1.05;0.50;;;17.30;73.70;;;;;;4989801;28;20132;-76
2024/03/23 00:16:34;;;;;;;0.85;0.60;;;17.30;73.70;;;;;;4988164;28;20092;-75
2024/03/23 00:19:01;;;;;;;1.00;0.65;;;17.30;73.70;;;;;;4989731;28;20042;-75
2024/03/23 00:21:27;;;;;;;0.75;0.63;;;17.30;73.80;;;;;;4985659;28;20038;-75
2024/03/23 00:23:54;;;;;;;0.65;0.50;;;17.30;73.70;;;;;;4987381;28;20496;-75
2024/03/23 00:26:20;;;;;;;0.77;0.75;;;17.30;73.70;;;;;;4987487;28;20030;-75
2024/03/23 00:28:47;;;;;;;0.52;0.50;;;17.30;73.60;;;;;;4990022;28;20045;-75
2024/03/23 00:31:14;;;;;;;0.80;0.70;;;17.30;73.60;;;;;;5004471;28;20558;-75
2024/03/23 00:33:40;;;;;;;0.60;0.60;;;17.30;73.60;;;;;;4990110;28;20026;-75
2024/03/23 00:36:07;;;;;;;0.98;0.57;;;17.30;73.60;;;;;;5005364;28;20038;-75
2024/03/23 00:38:33;;;;;;;1.23;0.63;;;17.30;73.70;;;;;;4988332;28;20033;-75
2024/03/23 00:41:00;;;;;;;0.55;0.50;;;17.30;73.60;;;;;;4989185;28;20038;-75
2024/03/23 00:43:27;;;;;;;0.68;0.60;;;17.30;73.60;;;;;;4988890;28;20046;-76
2024/03/23 00:45:53;;;;;;;0.63;0.50;;;17.30;73.60;;;;;;4986851;28;20092;-76
2024/03/23 00:48:20;;;;;;;0.70;0.68;;;17.30;73.70;;;;;;4988910;28;20042;-76
2024/03/23 00:50:46;;;;;;;0.90;0.57;;;17.30;73.80;;;;;;4987605;28;20037;-76
2024/03/23 00:53:12;;;;;;;1.10;0.60;;;17.30;73.70;;;;;;4986734;28;20069;-76
2024/03/23 00:55:38;;;;;;;1.65;0.65;;;17.30;74.40;;;;;;4987665;28;20030;-76
2024/03/23 00:58:04;;;;;;;0.57;0.57;;;17.20;74.20;;;;;;4986224;28;20396;-77
2024/03/23 01:00:29;;;;;;;1.15;0.50;;;17.20;73.40;;;;;;5003678;28;20122;-76
2024/03/23 01:02:55;;;;;;;0.60;0.57;;;17.20;73.30;;;;;;4988316;28;20094;-76
2024/03/23 01:05:20;;;;;;;0.77;0.65;;;17.20;73.30;;;;;;4988426;28;20053;-75
2024/03/23 01:07:46;;;;;;;0.47;0.40;;;17.20;73.40;;;;;;4953908;28;20141;-75
2024/03/23 01:10:11;;;;;;;0.70;0.70;;;17.20;73.30;;;;;;4970658;28;20038;-76
2024/03/23 01:12:37;;;;;;;0.60;0.57;;;17.20;73.30;;;;;;4999125;28;20042;-76
2024/03/23 01:15:03;;;;;;;0.77;0.50;;;17.20;73.40;;;;;;4990990;28;20038;-76
2024/03/23 01:17:28;;;;;;;0.85;0.57;;;17.20;73.50;;;;;;4989614;28;20053;-76
2024/03/23 01:19:54;;;;;;;0.75;0.57;;;17.20;73.30;;;;;;5004273;28;20459;-76
2024/03/23 01:22:19;;;;;;;0.60;0.40;;;17.20;74.10;;;;;;4971407;28;20129;-76
2024/03/23 01:24:45;;;;;;;0.55;0.40;;;17.20;73.30;;;;;;4972000;28;20038;-76
2024/03/23 01:27:11;;;;;;;0.73;0.60;;;17.20;73.40;;;;;;4984860;28;20417;-76
2024/03/23 01:29:36;;;;;;;0.63;0.50;;;17.20;73.20;;;;;;5003620;28;20184;-76
2024/03/23 01:32:02;;;;;;;1.35;0.90;;;17.20;73.20;;;;;;4986378;28;20050;-75
2024/03/23 01:34:28;;;;;;;0.55;0.40;;;17.20;73.20;;;;;;4986742;28;20498;-76
2024/03/23 01:36:53;;;;;;;0.50;0.50;;;17.20;73.20;;;;;;4987472;28;20415;-76
2024/03/23 01:39:19;;;;;;;0.63;0.40;;;17.20;73.20;;;;;;4986005;28;20100;-76
2024/03/23 01:41:44;;;;;;;0.80;0.65;;;17.20;73.40;;;;;;4970827;28;20118;-76
2024/03/23 01:44:10;;;;;;;0.80;0.70;;;17.10;73.10;;;;;;4956079;28;20512;-76
2024/03/23 01:46:37;;;;;;;0.63;0.60;;;17.10;73.10;;;;;;4986374;28;20504;-76
2024/03/23 01:49:02;;;;;;;0.45;0.40;;;17.10;73.00;;;;;;4987584;28;20439;-76
2024/03/23 01:51:28;;;;;;;0.68;0.60;;;17.10;73.10;;;;;;4986444;28;20042;-76
2024/03/23 01:53:53;;;;;;;0.65;0.50;;;17.10;73.00;;;;;;4988432;28;20126;-76
2024/03/23 01:56:19;;;;;;;0.73;0.50;;;17.10;73.00;;;;;;4971707;28;20113;-76
2024/03/23 01:58:45;;;;;;;0.73;0.50;;;17.20;73.10;;;;;;4971887;28;20523;-76
2024/03/23 02:01:10;;;;;;;0.65;0.40;;;17.10;73.00;;;;;;4986268;28;20128;-76
2024/03/23 02:03:36;;;;;;;0.73;0.47;;;17.10;73.80;;;;;;4987938;28;20038;-76
2024/03/23 02:06:02;;;;;;;0.77;0.60;;;17.10;73.10;;;;;;4970683;28;20057;-76
2024/03/23 02:08:27;;;;;;;0.85;0.52;;;17.10;73.10;;;;;;4965764;28;20050;-76
2024/03/23 02:10:53;;;;;;;0.68;0.63;;;17.10;73.10;;;;;;4969176;28;20096;-76
2024/03/23 02:13:19;;;;;;;0.40;0.40;;;17.10;73.00;;;;;;4986130;28;20030;-76
2024/03/23 02:15:44;;;;;;;0.65;0.50;;;17.10;73.00;;;;;;4987019;28;20507;-76
2024/03/23 02:18:10;;;;;;;0.52;0.40;;;17.10;73.00;;;;;;4987661;28;20492;-77
2024/03/23 02:20:36;;;;;;;0.63;0.35;;;17.10;73.00;;;;;;5003361;28;20107;-76
2024/03/23 02:23:02;;;;;;;0.70;0.45;;;17.10;73.00;;;;;;4988327;28;20492;-76
2024/03/23 02:25:27;;;;;;;1.00;0.50;;;17.10;73.00;;;;;;4984401;28;20059;-76
2024/03/23 02:27:54;;;;;;;0.60;0.40;;;17.10;73.00;;;;;;4987707;28;20062;-76
2024/03/23 02:30:20;;;;;;;0.70;0.50;;;17.10;72.90;;;;;;4984932;28;20050;-76
2024/03/23 02:32:45;;;;;;;0.55;0.50;;;17.10;73.00;;;;;;5002611;28;20435;-76
2024/03/23 02:35:11;;;;;;;0.70;0.40;;;17.10;73.50;;;;;;4985907;28;20042;-77
2024/03/23 02:37:37;;;;;;;0.40;0.30;;;17.10;72.80;;;;;;4986377;28;20106;-76
2024/03/23 02:40:03;;;;;;;0.80;0.43;;;17.10;72.70;;;;;;4986118;28;20082;-75
2024/03/23 02:42:28;;;;;;;0.95;0.40;;;17.10;72.70;;;;;;4986529;28;20058;-76
2024/03/23 02:44:54;;;;;;;0.68;0.45;;;17.10;72.90;;;;;;4987117;28;20074;-75
2024/03/23 02:47:19;;;;;;;0.50;0.35;;;17.10;72.70;;;;;;4967222;28;20558;-77
2024/03/23 02:49:45;;;;;;;1.17;0.63;;;17.00;72.70;;;;;;4985097;28;20062;-76
2024/03/23 02:52:10;;;;;;;1.30;0.70;;;17.10;72.60;;;;;;4987153;28;20121;-77
2024/03/23 02:54:36;;;;;;;0.85;0.60;;;17.10;72.80;;;;;;5002824;28;20409;-77
2024/03/23 02:57:02;;;;;;;0.40;0.40;;;17.00;72.50;;;;;;4986616;28;20038;-76
2024/03/23 02:59:27;;;;;;;0.50;0.40;;;17.00;72.50;;;;;;4968434;28;20090;-77
2024/03/23 03:01:53;;;;;;;0.52;0.35;;;17.10;72.60;;;;;;5001533;28;20042;-76
2024/03/23 03:04:18;;;;;;;0.35;0.35;;;17.00;72.60;;;;;;4987702;28;20085;-76
2024/03/23 03:06:47;;;;;;;0.52;0.43;;;17.00;72.50;;;;;;4987443;28;20043;-76
2024/03/23 03:09:12;;;;;;;0.60;0.50;;;17.00;72.60;;;;;;4985622;28;20038;-77
2024/03/23 03:11:38;;;;;;;0.82;0.60;;;17.00;72.50;;;;;;4969832;28;20038;-76
2024/03/23 03:14:03;;;;;;;0.47;0.40;;;17.00;72.50;;;;;;4969569;28;20617;-76
2024/03/23 03:16:29;;;;;;;1.38;0.50;;;17.00;72.70;;;;;;4960237;28;20049;-75
2024/03/23 03:18:55;;;;;;;0.55;0.50;;;17.00;72.50;;;;;;4985589;28;20034;-75
2024/03/23 03:21:21;;;;;;;1.08;0.60;;;17.00;72.60;;;;;;4990984;28;20535;-75
2024/03/23 03:23:50;;;;;;;0.50;0.40;;;17.00;73.40;;;;;;4985403;28;20528;-75
2024/03/23 03:26:16;;;;;;;0.60;0.40;;;17.00;73.30;;;;;;4985457;28;20035;-75
2024/03/23 03:28:42;;;;;;;0.50;0.50;;;17.00;72.60;;;;;;4986172;28;20053;-75
2024/03/23 03:31:08;;;;;;;0.73;0.50;;;17.00;72.50;;;;;;5001813;28;20039;-75
2024/03/23 03:33:33;;;;;;;0.30;0.30;;;17.00;73.30;;;;;;4967243;28;20043;-75
2024/03/23 03:35:59;;;;;;;0.40;0.40;;;17.00;72.60;;;;;;4985978;28;20092;-75
2024/03/23 03:38:24;;;;;;;0.40;0.40;;;17.00;73.40;;;;;;4990247;28;20057;-75
2024/03/23 03:40:50;;;;;;;0.40;0.38;;;17.00;72.50;;;;;;4973837;28;20038;-75
2024/03/23 03:43:15;;;;;;;1.35;0.30;;;17.00;72.60;;;;;;4971671;28;20113;-75
2024/03/23 03:45:41;;;;;;;0.73;0.40;;;17.00;72.70;;;;;;4990482;28;20412;-76
2024/03/23 03:48:07;;;;;;;0.45;0.40;;;17.00;72.50;;;;;;4989455;28;20046;-76
2024/03/23 03:50:32;;;;;;;0.68;0.40;;;17.00;72.60;;;;;;4990258;28;20524;-76
2024/03/23 03:52:58;;;;;;;0.57;0.40;;;16.90;72.60;;;;;;4990029;28;20050;-76
2024/03/23 03:55:23;;;;;;;0.57;0.50;;;16.90;72.40;;;;;;4988819;28;20523;-76
2024/03/23 03:57:49;;;;;;;0.38;0.30;;;16.90;72.50;;;;;;4988609;28;20123;-76
2024/03/23 04:00:15;;;;;;;0.35;0.30;;;16.90;72.40;;;;;;4988853;28;20066;-76
2024/03/23 04:02:41;;;;;;;0.77;0.38;;;16.90;72.40;;;;;;4988777;28;20061;-75
2024/03/23 04:05:08;;;;;;;0.50;0.40;;;16.90;72.50;;;;;;4987764;28;20046;-76
2024/03/23 04:07:33;;;;;;;0.50;0.30;;;16.90;72.60;;;;;;4985054;28;20050;-75
2024/03/23 04:09:59;;;;;;;0.70;0.40;;;16.90;72.60;;;;;;4973126;28;20050;-75
2024/03/23 04:12:25;;;;;;;0.85;0.40;;;16.90;72.50;;;;;;4988716;28;20546;-75
2024/03/23 04:14:50;;;;;;;0.95;0.35;;;16.90;72.40;;;;;;4989467;28;20053;-75
2024/03/23 04:17:16;;;;;;;0.65;0.52;;;16.90;72.40;;;;;;4987722;28;20062;-76
2024/03/23 04:19:42;;;;;;;0.70;0.50;;;16.90;72.40;;;;;;4990135;28;20046;-75
2024/03/23 04:22:08;;;;;;;0.38;0.30;;;16.90;72.30;;;;;;4972406;28;20038;-75
2024/03/23 04:24:33;;;;;;;0.50;0.40;;;16.90;72.30;;;;;;4988703;28;20036;-75
2024/03/23 04:26:59;;;;;;;0.55;0.30;;;16.90;72.30;;;;;;4988270;28;20522;-75
2024/03/23 04:29:26;;;;;;;0.70;0.40;;;16.90;72.30;;;;;;4987989;28;20078;-75
2024/03/23 04:31:52;;;;;;;1.05;0.50;;;16.90;73.10;;;;;;5004924;28;20523;-75
2024/03/23 04:34:17;;;;;;;0.55;0.40;;;16.90;72.30;;;;;;4971139;28;20042;-76
2024/03/23 04:36:43;;;;;;;0.40;0.40;;;16.90;72.30;;;;;;4987049;28;20160;-76
2024/03/23 04:39:08;;;;;;;0.95;0.35;;;16.90;72.30;;;;;;4989573;28;20057;-76
2024/03/23 04:41:35;;;;;;;0.50;0.40;;;16.90;72.00;;;;;;4989472;28;20046;-75
2024/03/23 04:44:00;;;;;;;0.30;0.20;;;16.90;72.30;;;;;;4987181;28;20042;-75
2024/03/23 04:46:26;;;;;;;0.88;0.50;;;16.90;72.20;;;;;;4968714;28;20049;-76
2024/03/23 04:48:52;;;;;;;0.65;0.45;;;16.90;73.00;;;;;;4979358;28;20116;-75
2024/03/23 04:51:22;;;;;;;0.70;0.40;;;16.90;72.30;;;;;;5004697;28;20034;-75
2024/03/23 04:53:48;;;;;;;0.50;0.30;;;16.90;72.20;;;;;;4990198;28;20080;-75
2024/03/23 04:56:14;;;;;;;0.30;0.30;;;16.90;72.40;;;;;;5004370;28;20085;-76
2024/03/23 04:58:40;;;;;;;0.38;0.30;;;16.90;71.90;;;;;;4986901;28;20038;-76
2024/03/23 05:01:05;;;;;;;0.55;0.30;;;16.90;72.30;;;;;;4989809;28;20042;-76
2024/03/23 05:03:31;;;;;;;0.70;0.50;;;16.90;72.10;;;;;;4987960;28;20590;-75
2024/03/23 05:05:56;;;;;;;0.25;0.20;;;16.90;72.20;;;;;;4988555;28;20053;-75
2024/03/23 05:08:22;;;;;;;0.40;0.38;;;16.80;72.20;;;;;;4968740;28;20034;-75
2024/03/23 05:10:47;;;;;;;0.40;0.32;;;16.80;72.10;;;;;;4970107;28;20116;-75
2024/03/23 05:13:13;;;;;;;0.40;0.38;;;16.80;72.00;;;;;;4987281;28;20523;-76
2024/03/23 05:15:39;;;;;;;0.50;0.30;;;16.90;72.50;;;;;;4986562;28;20042;-76
2024/03/23 05:18:05;;;;;;;0.50;0.50;;;16.90;72.10;;;;;;4969199;28;20074;-76
2024/03/23 05:20:31;;;;;;;0.95;0.22;;;16.90;72.20;;;;;;4967399;28;20061;-76
2024/03/23 05:22:56;;;;;;;0.55;0.40;;;16.90;72.20;;;;;;4988083;28;20039;-74
2024/03/23 05:25:22;;;;;;;0.50;0.40;;;16.80;72.10;;;;;;4970951;28;20042;-75
2024/03/23 05:27:48;;;;;;;1.05;0.43;;;16.80;71.80;;;;;;4985319;28;20042;-75
2024/03/23 05:30:14;;;;;;;0.55;0.30;;;16.80;71.80;;;;;;4990161;28;20136;-75
2024/03/23 05:32:42;;;;;;;0.60;0.30;;;16.80;71.80;;;;;;4988485;28;20050;-76
2024/03/23 05:35:09;;;;;;;1.65;0.30;;;16.80;71.80;;;;;;4970352;28;20599;-76
2024/03/23 05:37:34;;;;;;;0.50;0.50;;;16.80;71.80;;;;;;5002609;28;20049;-76
2024/03/23 05:40:00;;;;;;;0.30;0.20;;;16.80;72.00;;;;;;4955681;28;20046;-75
2024/03/23 05:42:26;;;;;;;0.30;0.30;;;16.80;71.80;;;;;;4987196;28;20436;-76
2024/03/23 05:44:52;;;;;;;0.28;0.28;;;16.80;72.60;;;;;;4987355;28;20512;-75
2024/03/23 05:47:17;;;;;;;0.38;0.30;;;16.80;71.80;;;;;;4986227;28;20088;-75
2024/03/23 05:49:43;;;;;;;0.30;0.30;;;16.80;71.80;;;;;;4985655;28;20046;-75
2024/03/23 05:52:09;;;;;;;0.30;0.28;;;16.80;71.80;;;;;;4971166;28;20050;-75
2024/03/23 05:54:35;;;;;;;0.60;0.40;;;16.80;71.90;;;;;;5002624;28;20500;-75
2024/03/23 05:57:00;;;;;;;0.55;0.38;;;16.80;71.80;;;;;;4978334;28;20508;-75
2024/03/23 05:59:26;;;;;;;0.73;0.30;;;16.80;71.80;;;;;;4985813;28;20042;-75
2024/03/23 06:01:52;;;;;;;0.43;0.32;;;16.80;72.00;;;;;;4954648;28;20121;-75
2024/03/23 06:04:18;;;;;;;0.60;0.30;;;16.80;71.90;;;;;;4969208;28;20050;-75
2024/03/23 06:06:43;;;;;;;0.47;0.30;;;16.80;71.80;;;;;;4969503;28;20046;-75
2024/03/23 06:09:09;;;;;;;0.43;0.40;;;16.80;72.00;;;;;;4986934;28;20060;-75
2024/03/23 06:11:34;;;;;;;1.40;0.30;;;16.80;71.80;;;;;;4952668;28;20050;-75
2024/03/23 06:14:00;;;;;;;0.20;0.20;;;16.80;71.80;;;;;;4968736;28;20046;-75
2024/03/23 06:16:27;;;;;;;0.30;0.30;;;16.80;72.60;;;;;;4969232;28;20500;-75
2024/03/23 06:18:52;;;;;;;0.63;0.30;;;16.80;71.80;;;;;;4968839;28;20528;-75
2024/03/23 06:21:18;;;;;;;0.60;0.40;;;16.80;72.60;;;;;;4988769;28;20069;-75
2024/03/23 06:23:50;;;;;;;0.40;0.30;;;16.80;71.80;;;;;;4986145;28;20035;-75
2024/03/23 06:26:19;;;;;;;0.30;0.30;;;16.80;71.90;;;;;;4964618;28;20046;-75
2024/03/23 06:28:45;;;;;;;0.30;0.20;;;16.80;71.80;;;;;;4985602;28;20431;-75
2024/03/23 06:31:10;;;;;;;0.80;0.32;;;16.70;72.00;;;;;;4986196;28;20045;-76
2024/03/23 06:33:36;;;;;;;0.57;0.30;;;16.80;71.80;;;;;;4995153;28;20508;-76
2024/03/23 06:36:03;;;;;;;0.52;0.28;;;16.80;71.80;;;;;;4987237;28;20104;-76
2024/03/23 06:38:28;;;;;;;2.55;0.30;;;16.80;71.70;;;;;;4968471;28;20057;-77
2024/03/23 06:40:54;;;;;;;0.38;0.30;;;16.80;71.80;;;;;;4968869;28;20039;-75
2024/03/23 06:43:19;;;;;;;1.80;0.30;;;16.80;73.70;;;;;;4985706;28;20043;-77
2024/03/23 06:45:52;;;;;;;0.32;0.28;;;16.80;73.80;;;;;;4967220;28;20564;-76
2024/03/23 06:48:17;;;;;;;0.80;0.20;;;16.80;74.40;;;;;;4985545;28;20512;-77
2024/03/23 06:50:43;;;;;;;0.40;0.40;;;16.80;74.40;;;;;;4985114;28;20050;-76
2024/03/23 06:53:08;;;;;;;0.47;0.30;;;16.80;75.60;;;;;;4984459;28;20524;-77
2024/03/23 06:55:34;;;;;;;0.60;0.43;;;16.80;76.30;;;;;;4967924;28;20038;-76
2024/03/23 06:58:00;;;;;;;0.40;0.20;;;16.80;76.20;;;;;;4983873;28;20520;-76
2024/03/23 07:00:25;;;;;;;0.40;0.35;;;16.80;75.00;;;;;;4983205;28;20053;-77
2024/03/23 07:02:51;;;;;;;0.50;0.20;;;16.80;75.10;;;;;;4969478;28;20050;-76
2024/03/23 07:05:17;;;;;;;0.40;0.30;;;16.70;75.20;;;;;;4968355;28;20188;-79
2024/03/23 07:07:42;;;;;;;4.40;0.20;;;16.80;76.30;;;;;;4982981;28;20029;-79
2024/03/23 07:10:08;;;;;;;0.30;0.20;;;16.80;75.50;;;;;;4986062;28;20125;-79
2024/03/23 07:12:33;;;;;;;0.35;0.20;;;16.70;75.70;;;;;;4985980;28;20039;-79
2024/03/23 07:14:59;;;;;;;0.77;0.20;;;16.70;75.90;;;;;;4985636;28;20047;-79
2024/03/23 07:17:25;;;;;;;0.32;0.20;;;16.80;75.70;;;;;;4986970;28;20128;-79
2024/03/23 07:19:50;;;;;;;0.32;0.30;;;16.70;76.00;;;;;;4986338;28;20046;-79
2024/03/23 07:22:16;;;;;;;0.40;0.30;;;16.80;76.30;;;;;;4986193;28;20074;-79
2024/03/23 07:24:41;;;;;;;0.32;0.32;;;16.80;76.30;;;;;;4984908;28;20045;-82
2024/03/23 07:27:09;;;;;;;0.22;0.22;;;16.80;76.50;;;;;;4985863;28;20034;-81
2024/03/23 07:29:35;;;;;;;0.50;0.30;;;16.80;77.10;;;;;;4984547;28;20053;-82
2024/03/23 07:32:01;;;;;;;0.38;0.30;;;16.80;77.00;;;;;;4984727;28;20039;-80
2024/03/23 07:34:27;;;;;;;0.68;0.20;;;16.70;76.10;;;;;;4984150;28;20049;-80
2024/03/23 07:36:52;;;;;;;0.68;0.30;;;16.70;76.20;;;;;;4984684;28;20038;-82
2024/03/23 07:39:18;;;;;;;1.13;0.30;;;16.70;75.90;;;;;;4969840;28;20145;-80
2024/03/23 07:41:46;;;;;;;0.52;0.30;;;16.70;77.20;;;;;;4952520;28;20439;-80
2024/03/23 07:44:12;;;;;;;0.30;0.30;;;16.70;77.00;;;;;;4985711;28;20054;-80
2024/03/23 07:46:38;;;;;;;0.20;0.20;;;16.70;77.10;;;;;;5001321;28;20049;-80
2024/03/23 07:49:06;;;;;;;0.30;0.10;;;16.70;77.40;;;;;;4985479;28;20043;-80
2024/03/23 07:51:32;;;;;;;0.40;0.25;;;16.70;77.60;;;;;;4986111;28;20043;-81
2024/03/23 07:53:58;;;;;;;3.28;0.13;;;16.70;77.60;;;;;;4987153;28;20125;-80
2024/03/23 07:56:24;;;;;;;0.52;0.13;;;16.70;77.50;;;;;;4985653;28;20523;-81
2024/03/23 07:58:49;;;;;;;0.38;0.20;;;16.80;77.10;;;;;;4967974;28;20108;-81
2024/03/23 08:01:16;;;;;;;3.83;0.32;;;16.70;76.80;;;;;;4984502;28;20042;-81
2024/03/23 08:03:43;;;;;;;0.17;0.17;;;16.70;77.00;;;;;;4980411;28;20046;-81
2024/03/23 08:06:12;;;;;;;0.70;0.20;;;16.70;77.10;;;;;;4981560;28;20082;-81
2024/03/23 08:08:39;;;;;;;1.45;0.30;;;16.70;77.40;;;;;;4977543;28;20062;-81
2024/03/23 08:11:05;;;;;;;0.77;0.32;;;16.70;77.30;;;;;;4964676;28;20524;-80
2024/03/23 08:13:31;;;;;;;0.22;0.20;;;16.70;77.40;;;;;;4963665;28;20050;-79
2024/03/23 08:15:57;;;;;;;1.30;0.30;;;16.80;77.10;;;;;;4981444;28;20046;-80
2024/03/23 08:18:23;;;;;;;0.40;0.22;;;16.80;77.10;;;;;;4983352;28;20043;-80
2024/03/23 08:20:59;;;;;;;0.20;0.20;;;16.80;76.80;;;;;;4982244;28;20448;-80
2024/03/23 08:23:25;;;;;;;0.77;0.20;;;16.80;76.90;;;;;;4983411;28;20073;-80
2024/03/23 08:25:51;;;;;;;0.40;0.20;;;16.80;76.80;;;;;;4641838;28;9999607;-80
2024/03/23 08:28:17;;;;;;;0.30;0.20;;;16.80;77.10;;;;;;4987750;28;20124;-79
2024/03/23 08:30:43;;;;;;;0.38;0.22;;;16.80;76.70;;;;;;4986829;28;20050;-79
2024/03/23 08:33:08;;;;;;;0.95;0.40;;;16.80;76.50;;;;;;4991090;28;20042;-79
2024/03/23 08:35:34;;;;;;;0.40;0.20;;;16.90;76.70;;;;;;4983923;28;20042;-79
2024/03/23 08:38:00;;;;;;;0.82;0.32;;;16.90;77.00;;;;;;5005398;28;20038;-79
2024/03/23 08:40:25;;;;;;;1.20;0.20;;;16.90;77.20;;;;;;4971954;28;20464;-80
2024/03/23 08:42:51;;;;;;;0.20;0.20;;;16.90;77.00;;;;;;4988305;28;20529;-81
2024/03/23 08:45:17;;;;;;;0.75;0.20;;;16.90;76.80;;;;;;4989202;28;20046;-80
2024/03/23 08:47:42;;;;;;;1.77;0.40;;;17.00;77.20;;;;;;4982254;28;20085;-81
2024/03/23 08:50:08;;;;;;;0.47;0.35;;;17.00;77.30;;;;;;4987659;28;20038;-80
2024/03/23 08:52:34;;;;;;;0.57;0.28;;;17.00;76.60;;;;;;4987509;28;20034;-80
2024/03/23 08:54:59;;;;;;;0.40;0.35;;;17.00;77.10;;;;;;5004812;28;20496;-80
2024/03/23 08:57:25;;;;;;;0.20;0.20;;;17.00;77.10;;;;;;4988055;28;20042;-80
2024/03/23 08:59:50;;;;;;;0.38;0.20;;;17.10;77.30;;;;;;5003079;28;20049;-79
2024/03/23 09:02:16;;;;;;;0.30;0.20;;;17.10;77.00;;;;;;4988907;28;20038;-80
2024/03/23 09:04:42;;;;;;;0.73;0.20;;;17.10;77.00;;;;;;4953852;28;20570;-79
2024/03/23 09:07:07;;;;;;;0.17;0.13;;;17.10;76.90;;;;;;4988536;28;20070;-81
2024/03/23 09:09:33;;;;;;;0.28;0.28;;;17.20;76.80;;;;;;4988692;28;20502;-79
2024/03/23 09:11:59;;;;;;;0.73;0.20;;;17.20;76.50;;;;;;4988401;28;20042;-80
2024/03/23 09:14:24;;;;;;;0.22;0.20;;;17.30;75.90;;;;;;4987216;28;20122;-80
2024/03/23 09:16:50;;;;;;;0.82;0.40;;;17.30;76.20;;;;;;4988851;28;20480;-79
2024/03/23 09:19:17;;;;;;;1.17;0.25;;;17.30;77.10;;;;;;4983979;28;20050;-79
2024/03/23 09:21:42;;;;;;;0.80;0.20;;;17.40;76.10;;;;;;4985912;28;20042;-80
2024/03/23 09:24:08;;;;;;;0.52;0.38;;;17.40;75.70;;;;;;4988364;28;20080;-80
2024/03/23 09:26:34;;;;;;;0.40;0.22;;;17.50;75.90;;;;;;4980651;28;20035;-79
2024/03/23 09:28:59;;;;;;;1.67;0.25;;;17.50;75.90;;;;;;4986794;28;20160;-81
2024/03/23 09:31:25;;;;;;;1.17;0.30;;;17.60;75.80;;;;;;5003159;28;20038;-80
2024/03/23 09:33:50;;;;;;;0.30;0.30;;;17.60;75.50;;;;;;4985956;28;20050;-80
2024/03/23 09:36:16;;;;;;;0.13;0.10;;;17.60;75.70;;;;;;4987584;28;20041;-80
2024/03/23 09:38:42;;;;;;;0.55;0.13;;;17.60;75.90;;;;;;4965120;28;20496;-79
2024/03/23 09:41:08;;;;;;;0.22;0.20;;;17.60;76.10;;;;;;4987473;28;20034;-79
2024/03/23 09:43:34;;;;;;;0.52;0.50;;;17.60;76.10;;;;;;4985497;28;20043;-79
2024/03/23 09:45:59;;;;;;;0.45;0.20;;;17.60;76.10;;;;;;4985839;28;20106;-79
2024/03/23 09:48:26;;;;;;;0.43;0.32;;;17.70;76.50;;;;;;4986830;28;20034;-80
2024/03/23 09:50:51;;;;;;;0.20;0.17;;;17.70;76.10;;;;;;4970306;28;20046;-80
2024/03/23 09:53:17;;;;;;;0.60;0.30;;;17.70;76.20;;;;;;4971595;28;20112;-80
2024/03/23 09:55:44;;;;;;;0.10;0.10;;;17.70;76.30;;;;;;4986132;28;20034;-80
2024/03/23 09:58:12;;;;;;;0.40;0.20;;;17.70;76.10;;;;;;4987441;28;20520;-80
2024/03/23 10:00:38;;;;;;;0.35;0.20;;;17.80;76.00;;;;;;4977258;28;20034;-79
2024/03/23 10:03:06;;;;;;;0.20;0.15;;;17.80;76.50;;;;;;5001676;28;20089;-80
2024/03/23 10:05:33;;;;;;;0.43;0.20;;;17.80;76.10;;;;;;4970963;28;20100;-80
2024/03/23 10:08:19;;;;;;;0.40;0.20;;;17.80;76.30;;;;;;4984633;28;20059;-80
2024/03/23 10:10:45;;;;;;;0.35;0.35;;;17.80;75.70;;;;;;4985137;28;20679;-79
2024/03/23 10:13:12;;;;;;;0.88;0.20;;;17.80;76.20;;;;;;4985649;28;20039;-80
2024/03/23 10:15:38;;;;;;;0.40;0.20;;;17.90;76.10;;;;;;4984803;28;20043;-79
2024/03/23 10:18:19;;;;;;;0.30;0.20;;;17.90;75.30;;;;;;4998009;28;20039;-80
2024/03/23 10:21:11;;;;;;;0.28;0.17;;;18.00;75.40;;;;;;4984074;28;20049;-79
2024/03/23 10:23:41;;;;;;;0.20;0.10;;;18.00;75.90;;;;;;4983146;28;20038;-80
2024/03/23 10:26:15;;;;;;;0.38;0.30;;;18.00;75.10;;;;;;4986027;28;20141;-80
2024/03/23 10:29:07;;;;;;;0.47;0.20;;;18.00;75.20;;;;;;4983702;28;20031;-80
2024/03/23 10:31:33;;;;;;;0.40;0.20;;;18.00;75.20;;;;;;4990041;28;20048;-81
2024/03/23 10:34:00;;;;;;;0.57;0.32;;;18.00;75.20;;;;;;4982657;28;21587;-80
2024/03/23 10:36:26;;;;;;;0.50;0.20;;;18.00;74.50;;;;;;4964672;28;20073;-80
2024/03/23 10:38:52;;;;;;;0.63;0.30;;;18.00;74.80;;;;;;4985984;28;20483;-80
2024/03/23 10:41:18;;;;;;;2.05;0.35;;;18.10;75.20;;;;;;4983589;28;20425;-79
2024/03/23 10:43:48;;;;;;;5.13;0.65;;;18.00;75.40;;;;;;4983858;28;20039;-79
2024/03/23 10:46:13;;;;;;;0.45;0.40;;;18.00;74.40;;;;;;4983466;28;20058;-80
2024/03/23 10:48:39;;;;;;;0.20;0.20;;;18.00;74.50;;;;;;4967118;28;20116;-79
2024/03/23 10:51:08;;;;;;;0.20;0.20;;;18.00;74.80;;;;;;4983860;28;20044;-79
2024/03/23 10:53:34;;;;;;;0.50;0.25;;;18.00;74.90;;;;;;5000993;28;20723;-80
2024/03/23 10:56:00;;;;;;;0.30;0.15;;;18.10;74.90;;;;;;4985223;28;20432;-79
2024/03/23 10:58:40;;;;;;;0.52;0.45;;;18.10;75.40;;;;;;4968625;28;20045;-80
2024/03/23 11:01:05;;;;;;;0.60;0.40;;;18.10;74.60;;;;;;4947216;28;20145;-80
2024/03/23 11:03:38;;;;;;;0.32;0.30;;;18.00;74.80;;;;;;4984857;28;20133;-79
2024/03/23 11:06:04;;;;;;;0.40;0.20;;;18.10;74.60;;;;;;4985954;28;20137;-79
2024/03/23 11:08:37;;;;;;;0.10;0.10;;;18.10;74.50;;;;;;4984011;28;20084;-80
2024/03/23 11:11:18;;;;;;;0.50;0.20;;;18.10;74.90;;;;;;4969155;28;20056;-80
2024/03/23 11:13:43;;;;;;;0.30;0.10;;;18.10;74.50;;;;;;4953025;28;20030;-79
2024/03/23 11:16:21;;;;;;;0.38;0.20;;;18.10;74.20;;;;;;4981825;28;20483;-80
2024/03/23 11:18:47;;;;;;;0.65;0.20;;;18.10;74.30;;;;;;4985014;28;20054;-80
2024/03/23 11:21:51;;;;;;;0.40;0.28;;;18.10;74.50;;;;;;4988021;28;20086;-80
2024/03/23 11:24:18;;;;;;;0.30;0.20;;;18.00;74.60;;;;;;4986117;28;20046;-80
2024/03/23 11:26:44;;;;;;;0.52;0.30;;;18.00;74.00;;;;;;4986976;28;20052;-79
2024/03/23 11:29:10;;;;;;;0.65;0.40;;;18.00;74.20;;;;;;4984327;28;20046;-80
2024/03/23 11:31:37;;;;;;;0.57;0.20;;;18.10;74.40;;;;;;4985518;28;20049;-80
2024/03/23 11:34:04;;;;;;;0.40;0.20;;;18.00;74.00;;;;;;4979972;28;20052;-80
2024/03/23 11:36:30;;;;;;;0.30;0.20;;;18.00;74.10;;;;;;4988573;28;20504;-80
2024/03/23 11:38:55;;;;;;;0.47;0.20;;;17.90;73.60;;;;;;4985969;28;20050;-80
2024/03/23 11:41:21;;;;;;;0.40;0.20;;;18.00;72.90;;;;;;4963110;28;20417;-80
2024/03/23 11:43:47;;;;;;;0.50;0.30;;;18.00;73.60;;;;;;4966523;28;20058;-80
2024/03/23 11:46:18;;;;;;;0.88;0.20;;;18.00;73.60;;;;;;4986795;28;20126;-80
2024/03/23 11:48:50;;;;;;;1.20;0.70;;;17.90;73.80;;;;;;4973298;28;20054;-79
2024/03/23 11:51:15;;;;;;;1.98;0.85;;;18.00;73.30;;;;;;4997782;28;20050;-79
2024/03/23 11:53:41;;;;;;;0.88;0.43;;;18.00;72.30;;;;;;4986192;28;20048;-79
2024/03/23 11:56:06;;;;;;;0.40;0.30;;;18.10;73.80;;;;;;4986941;28;20050;-79
2024/03/23 11:58:32;;;;;;;0.65;0.40;;;18.10;73.40;;;;;;4969622;28;20046;-80
2024/03/23 12:00:59;;;;;;;0.38;0.20;;;18.10;73.40;;;;;;4990952;28;20042;-80
2024/03/23 12:03:25;;;;;;;0.60;0.40;;;18.10;73.10;;;;;;4991048;28;20038;-80
2024/03/23 12:06:01;;;;;;;1.95;0.20;;;18.10;73.50;;;;;;4991061;28;20089;-80
2024/03/23 12:08:33;;;;;;;0.40;0.17;;;18.10;73.40;;;;;;4989417;28;20078;-80
2024/03/23 12:11:06;;;;;;;1.27;0.20;;;18.00;73.80;;;;;;4986982;28;20030;-81
2024/03/23 12:13:31;;;;;;;0.68;0.50;;;18.00;73.70;;;;;;4989218;28;20046;-82
2024/03/23 12:16:14;;;;;;;1.00;0.20;;;18.00;73.70;;;;;;4989610;28;20053;-81
2024/03/23 12:18:41;;;;;;;1.95;0.85;;;18.00;73.50;;;;;;4311286;28;10000911;-80
2024/03/23 12:21:07;;;;;;;0.40;0.20;;;18.00;73.20;;;;;;4979085;28;20088;-80
2024/03/23 12:23:33;;;;;;;0.20;0.20;;;18.00;74.10;;;;;;4984730;28;20054;-80
2024/03/23 12:25:58;;;;;;;0.35;0.20;;;18.00;73.90;;;;;;4968781;28;20104;-80
2024/03/23 12:28:25;;;;;;;0.30;0.25;;;18.10;73.10;;;;;;4989018;28;20042;-79
2024/03/23 12:30:51;;;;;;;0.55;0.30;;;18.00;73.30;;;;;;4986782;28;20058;-79
2024/03/23 12:33:17;;;;;;;0.50;0.30;;;18.10;73.40;;;;;;4987060;28;20073;-79
2024/03/23 12:35:43;;;;;;;2.25;0.30;;;18.10;72.90;;;;;;4988496;28;20512;-79
2024/03/23 12:38:09;;;;;;;0.50;0.35;;;18.10;72.20;;;;;;4986662;28;20054;-80
2024/03/23 12:40:34;;;;;;;0.30;0.30;;;18.10;72.60;;;;;;4988081;28;20030;-80
2024/03/23 12:43:00;;;;;;;0.30;0.30;;;18.00;72.80;;;;;;4998297;28;20191;-79